createdAt,value
2017-01-01T00:00:11.045Z,57.07
2017-01-01T00:01:13.811Z,57.10
2017-01-01T00:02:12.470Z,57.09
2017-01-01T00:03:15.132Z,57.10
2017-01-01T00:04:14.055Z,57.09
2017-01-01T00:05:12.735Z,57.10
2017-01-01T00:06:12.704Z,57.09
2017-01-01T00:07:12.882Z,57.09
2017-01-01T00:08:12.960Z,57.10
2017-01-01T00:09:11.024Z,57.10
2017-01-01T00:10:12.136Z,57.10
2017-01-01T00:11:12.081Z,57.09
2017-01-01T00:12:12.026Z,57.11
2017-01-01T00:13:12.753Z,57.10
2017-01-01T00:14:13.211Z,57.09
2017-01-01T00:15:14.064Z,57.10
2017-01-01T00:16:12.742Z,57.10
2017-01-01T00:17:13.334Z,56.97
2017-01-01T00:18:14.038Z,56.18
2017-01-01T00:19:12.739Z,56.87
2017-01-01T00:20:13.669Z,56.98
2017-01-01T00:21:13.434Z,57.04
2017-01-01T00:22:12.571Z,57.07
2017-01-01T00:23:13.244Z,57.08
2017-01-01T00:24:12.569Z,57.08
2017-01-01T00:25:13.245Z,57.09
2017-01-01T00:26:12.857Z,57.09
2017-01-01T00:27:13.603Z,57.09
2017-01-01T00:28:12.542Z,57.09
2017-01-01T00:29:13.454Z,57.10
2017-01-01T00:30:13.252Z,57.10
2017-01-01T00:31:13.042Z,57.10
2017-01-01T00:32:12.557Z,57.09
2017-01-01T00:33:10.802Z,57.10
2017-01-01T00:34:13.457Z,57.08
2017-01-01T00:35:13.080Z,57.09
2017-01-01T00:36:12.124Z,57.07
2017-01-01T00:37:12.290Z,57.08
2017-01-01T00:38:12.378Z,57.07
2017-01-01T00:39:12.969Z,57.08
2017-01-01T00:40:12.622Z,57.09
2017-01-01T00:41:13.524Z,57.10
2017-01-01T00:42:12.919Z,57.09
2017-01-01T00:43:11.723Z,57.10
2017-01-01T00:44:12.938Z,57.11
2017-01-01T00:45:12.069Z,57.10
2017-01-01T00:46:13.674Z,57.10
2017-01-01T00:47:13.424Z,57.10
2017-01-01T00:48:15.805Z,57.10
2017-01-01T00:49:13.702Z,57.11
2017-01-01T00:50:14.624Z,57.10
2017-01-01T00:51:13.353Z,57.11
2017-01-01T00:52:13.316Z,57.10
2017-01-01T00:53:12.201Z,57.09
2017-01-01T00:54:11.244Z,57.08
2017-01-01T00:55:12.900Z,56.18
2017-01-01T00:56:12.831Z,55.97
2017-01-01T00:57:15.703Z,55.87
2017-01-01T00:58:12.833Z,55.81
2017-01-01T00:59:12.852Z,55.77
2017-01-01T01:00:13.414Z,55.76
2017-01-01T01:01:13.169Z,55.75
2017-01-01T01:02:13.960Z,56.02
2017-01-01T01:03:12.551Z,56.65
2017-01-01T01:04:13.131Z,56.83
2017-01-01T01:05:12.918Z,56.92
2017-01-01T01:06:13.189Z,56.97
2017-01-01T01:07:13.834Z,57.00
2017-01-01T01:08:17.714Z,57.03
2017-01-01T01:09:15.760Z,57.04
2017-01-01T01:10:14.223Z,57.05
2017-01-01T01:11:14.234Z,57.05
2017-01-01T01:12:13.883Z,57.04
2017-01-01T01:13:12.916Z,57.06
2017-01-01T01:14:14.067Z,57.07
2017-01-01T01:15:12.802Z,57.07
2017-01-01T01:16:12.825Z,57.09
2017-01-01T01:17:12.963Z,57.06
2017-01-01T01:18:12.072Z,57.06
2017-01-01T01:19:12.332Z,57.07
2017-01-01T01:20:12.924Z,57.07
2017-01-01T01:21:11.914Z,57.05
2017-01-01T01:22:14.022Z,57.07
2017-01-01T01:23:13.139Z,57.08
2017-01-01T01:24:13.007Z,57.07
2017-01-01T01:25:12.134Z,57.06
2017-01-01T01:26:12.191Z,57.08
2017-01-01T01:27:11.380Z,57.09
2017-01-01T01:28:14.032Z,57.07
2017-01-01T01:29:13.094Z,57.07
2017-01-01T01:30:11.282Z,56.95
2017-01-01T01:31:12.044Z,56.14
2017-01-01T01:32:12.733Z,55.93
2017-01-01T01:33:14.634Z,55.85
2017-01-01T01:34:13.867Z,55.80
2017-01-01T01:35:12.739Z,55.76
2017-01-01T01:36:12.791Z,55.75
2017-01-01T01:37:12.793Z,55.74
2017-01-01T01:38:13.866Z,55.83
2017-01-01T01:39:14.644Z,56.61
2017-01-01T01:40:13.479Z,56.81
2017-01-01T01:41:14.030Z,56.90
2017-01-01T01:42:12.627Z,56.96
2017-01-01T01:43:14.229Z,56.99
2017-01-01T01:44:13.052Z,57.00
2017-01-01T01:45:12.039Z,57.02
2017-01-01T01:46:11.106Z,57.05
2017-01-01T01:47:12.552Z,56.12
2017-01-01T01:48:13.953Z,55.91
2017-01-01T01:49:11.995Z,55.82
2017-01-01T01:50:12.025Z,55.77
2017-01-01T01:51:12.800Z,55.72
2017-01-01T01:52:13.680Z,55.71
2017-01-01T01:53:13.284Z,55.69
2017-01-01T01:54:14.029Z,55.68
2017-01-01T01:55:13.465Z,55.86
2017-01-01T01:56:13.282Z,56.59
2017-01-01T01:57:13.064Z,56.76
2017-01-01T01:58:12.022Z,56.87
2017-01-01T01:59:12.589Z,56.94
2017-01-01T02:00:12.924Z,56.98
2017-01-01T02:01:12.130Z,57.01
2017-01-01T02:02:13.295Z,57.03
2017-01-01T02:03:12.385Z,57.04
2017-01-01T02:04:13.064Z,57.05
2017-01-01T02:05:12.965Z,57.05
2017-01-01T02:06:09.181Z,57.07
2017-01-01T02:07:12.950Z,57.07
2017-01-01T02:08:11.989Z,57.07
2017-01-01T02:09:14.880Z,57.08
2017-01-01T02:10:13.371Z,57.07
2017-01-01T02:11:12.897Z,57.08
2017-01-01T02:12:13.025Z,57.07
2017-01-01T02:13:12.729Z,57.08
2017-01-01T02:14:15.235Z,57.08
2017-01-01T02:15:13.853Z,57.07
2017-01-01T02:16:13.669Z,57.06
2017-01-01T02:17:13.483Z,56.36
2017-01-01T02:18:14.041Z,56.29
2017-01-01T02:19:13.691Z,56.46
2017-01-01T02:20:12.724Z,56.61
2017-01-01T02:21:13.104Z,56.77
2017-01-01T02:22:12.733Z,56.81
2017-01-01T02:23:12.903Z,56.90
2017-01-01T02:24:13.874Z,56.88
2017-01-01T02:25:13.236Z,56.87
2017-01-01T02:26:13.757Z,56.88
2017-01-01T02:27:14.414Z,56.87
2017-01-01T02:28:12.421Z,56.89
2017-01-01T02:29:12.908Z,56.90
2017-01-01T02:30:13.724Z,56.91
2017-01-01T02:31:09.942Z,56.92
2017-01-01T02:32:11.051Z,56.83
2017-01-01T02:33:12.928Z,56.04
2017-01-01T02:34:11.224Z,55.86
2017-01-01T02:35:12.894Z,55.75
2017-01-01T02:36:11.820Z,55.78
2017-01-01T02:37:12.964Z,55.69
2017-01-01T02:38:10.877Z,55.67
2017-01-01T02:39:13.539Z,55.95
2017-01-01T02:40:13.375Z,56.60
2017-01-01T02:41:13.259Z,56.80
2017-01-01T02:42:14.343Z,56.89
2017-01-01T02:43:12.454Z,56.97
2017-01-01T02:44:13.344Z,57.03
2017-01-01T02:45:13.014Z,57.06
2017-01-01T02:46:12.795Z,57.07
2017-01-01T02:47:12.933Z,57.11
2017-01-01T02:48:10.078Z,57.15
2017-01-01T02:49:12.578Z,57.17
2017-01-01T02:50:12.588Z,57.18
2017-01-01T02:51:13.376Z,57.21
2017-01-01T02:52:12.536Z,57.24
2017-01-01T02:53:12.695Z,57.25
2017-01-01T02:54:12.864Z,57.27
2017-01-01T02:55:14.224Z,57.26
2017-01-01T02:56:11.114Z,57.34
2017-01-01T02:57:12.308Z,57.30
2017-01-01T02:58:13.177Z,57.30
2017-01-01T02:59:12.363Z,57.31
2017-01-01T03:00:13.178Z,57.33
2017-01-01T03:01:12.156Z,57.31
2017-01-01T03:02:12.889Z,57.34
2017-01-01T03:03:12.862Z,57.36
2017-01-01T03:04:13.035Z,57.37
2017-01-01T03:05:13.444Z,57.38
2017-01-01T03:06:12.524Z,57.40
2017-01-01T03:07:13.210Z,57.29
2017-01-01T03:08:12.386Z,56.52
2017-01-01T03:09:12.705Z,56.53
2017-01-01T03:10:12.759Z,57.10
2017-01-01T03:11:13.025Z,57.25
2017-01-01T03:12:13.896Z,57.33
2017-01-01T03:13:13.122Z,57.37
2017-01-01T03:14:12.611Z,57.38
2017-01-01T03:15:12.924Z,57.41
2017-01-01T03:16:13.065Z,57.41
2017-01-01T03:17:13.051Z,57.41
2017-01-01T03:18:12.131Z,57.41
2017-01-01T03:19:14.128Z,57.47
2017-01-01T03:20:12.804Z,57.44
2017-01-01T03:21:12.871Z,57.44
2017-01-01T03:22:13.050Z,57.44
2017-01-01T03:23:12.907Z,57.47
2017-01-01T03:24:12.879Z,57.47
2017-01-01T03:25:15.547Z,57.49
2017-01-01T03:26:13.697Z,57.51
2017-01-01T03:27:12.693Z,57.52
2017-01-01T03:28:12.851Z,57.55
2017-01-01T03:29:15.339Z,57.53
2017-01-01T03:30:12.884Z,57.54
2017-01-01T03:31:13.745Z,57.56
2017-01-01T03:32:11.720Z,57.59
2017-01-01T03:33:12.807Z,57.59
2017-01-01T03:34:12.695Z,57.57
2017-01-01T03:35:12.656Z,57.59
2017-01-01T03:36:11.397Z,57.59
2017-01-01T03:37:10.226Z,56.81
2017-01-01T03:38:14.069Z,56.47
2017-01-01T03:39:12.118Z,56.42
2017-01-01T03:40:12.669Z,56.39
2017-01-01T03:41:13.684Z,56.34
2017-01-01T03:42:13.380Z,56.31
2017-01-01T03:43:13.412Z,56.30
2017-01-01T03:44:10.823Z,56.32
2017-01-01T03:45:13.157Z,56.28
2017-01-01T03:46:12.830Z,56.26
2017-01-01T03:47:13.847Z,56.18
2017-01-01T03:48:14.731Z,56.29
2017-01-01T03:49:10.100Z,56.30
2017-01-01T03:50:12.200Z,56.33
2017-01-01T03:51:13.201Z,56.48
2017-01-01T03:52:13.338Z,57.23
2017-01-01T03:53:12.418Z,57.43
2017-01-01T03:54:14.351Z,57.53
2017-01-01T03:55:13.160Z,57.60
2017-01-01T03:56:12.314Z,57.65
2017-01-01T03:57:12.506Z,57.72
2017-01-01T03:58:13.286Z,57.71
2017-01-01T03:59:13.642Z,57.73
2017-01-01T04:00:13.189Z,57.63
2017-01-01T04:01:12.335Z,57.15
2017-01-01T04:02:12.301Z,57.59
2017-01-01T04:03:12.365Z,57.70
2017-01-01T04:04:13.088Z,57.76
2017-01-01T04:05:12.086Z,57.79
2017-01-01T04:06:13.008Z,57.79
2017-01-01T04:07:12.764Z,57.81
2017-01-01T04:08:16.509Z,57.85
2017-01-01T04:09:11.703Z,57.88
2017-01-01T04:10:13.282Z,57.87
2017-01-01T04:11:12.409Z,57.88
2017-01-01T04:12:12.531Z,57.89
2017-01-01T04:13:12.556Z,57.90
2017-01-01T04:14:12.608Z,57.90
2017-01-01T04:15:12.927Z,57.90
2017-01-01T04:16:12.512Z,57.88
2017-01-01T04:17:14.469Z,57.92
2017-01-01T04:18:14.258Z,57.92
2017-01-01T04:19:12.958Z,57.92
2017-01-01T04:20:11.988Z,57.96
2017-01-01T04:21:12.214Z,57.96
2017-01-01T04:22:12.925Z,57.86
2017-01-01T04:23:13.163Z,57.06
2017-01-01T04:24:12.868Z,56.78
2017-01-01T04:25:12.938Z,56.77
2017-01-01T04:26:14.011Z,56.82
2017-01-01T04:27:12.878Z,56.69
2017-01-01T04:28:13.537Z,56.63
2017-01-01T04:29:13.253Z,56.63
2017-01-01T04:30:12.833Z,56.66
2017-01-01T04:31:13.851Z,57.56
2017-01-01T04:32:12.817Z,57.79
2017-01-01T04:33:13.450Z,57.95
2017-01-01T04:34:14.077Z,58.00
2017-01-01T04:35:13.179Z,58.10
2017-01-01T04:36:12.233Z,58.13
2017-01-01T04:37:13.205Z,58.19
2017-01-01T04:38:12.268Z,58.24
2017-01-01T04:39:12.313Z,58.27
2017-01-01T04:40:12.868Z,58.27
2017-01-01T04:41:13.632Z,58.28
2017-01-01T04:42:12.852Z,58.31
2017-01-01T04:43:11.968Z,58.29
2017-01-01T04:44:13.675Z,58.31
2017-01-01T04:45:13.243Z,58.31
2017-01-01T04:46:12.924Z,58.33
2017-01-01T04:47:12.705Z,58.33
2017-01-01T04:48:12.786Z,58.35
2017-01-01T04:49:13.427Z,58.36
2017-01-01T04:50:14.058Z,58.36
2017-01-01T04:51:12.185Z,58.36
2017-01-01T04:52:13.200Z,58.35
2017-01-01T04:53:14.265Z,58.33
2017-01-01T04:54:12.393Z,58.34
2017-01-01T04:55:12.371Z,58.35
2017-01-01T04:56:13.196Z,58.33
2017-01-01T04:57:12.299Z,58.34
2017-01-01T04:58:12.478Z,58.33
2017-01-01T04:59:11.200Z,58.35
2017-01-01T05:00:12.638Z,58.35
2017-01-01T05:01:13.019Z,58.35
2017-01-01T05:02:14.007Z,58.39
2017-01-01T05:03:13.971Z,58.41
2017-01-01T05:04:12.986Z,58.42
2017-01-01T05:05:12.181Z,58.42
2017-01-01T05:06:14.488Z,58.40
2017-01-01T05:07:13.253Z,58.41
2017-01-01T05:08:15.695Z,58.43
2017-01-01T05:09:13.132Z,58.45
2017-01-01T05:10:12.919Z,58.45
2017-01-01T05:11:13.666Z,58.46
2017-01-01T05:12:13.739Z,58.44
2017-01-01T05:13:13.482Z,58.45
2017-01-01T05:14:12.543Z,58.45
2017-01-01T05:15:13.150Z,58.47
2017-01-01T05:16:12.233Z,58.48
2017-01-01T05:17:14.035Z,58.47
2017-01-01T05:18:12.038Z,58.47
2017-01-01T05:19:14.728Z,58.47
2017-01-01T05:20:14.939Z,58.48
2017-01-01T05:21:12.782Z,58.46
2017-01-01T05:22:13.188Z,58.48
2017-01-01T05:23:12.625Z,58.48
2017-01-01T05:24:12.644Z,58.50
2017-01-01T05:25:16.895Z,58.48
2017-01-01T05:26:12.425Z,58.48
2017-01-01T05:27:13.035Z,58.51
2017-01-01T05:28:12.907Z,58.48
2017-01-01T05:29:12.988Z,58.48
2017-01-01T05:30:11.953Z,58.48
2017-01-01T05:31:10.963Z,58.51
2017-01-01T05:32:11.678Z,58.52
2017-01-01T05:33:13.049Z,58.50
2017-01-01T05:34:12.820Z,58.50
2017-01-01T05:35:13.697Z,58.49
2017-01-01T05:36:13.649Z,58.51
2017-01-01T05:37:12.730Z,58.52
2017-01-01T05:38:13.370Z,58.51
2017-01-01T05:39:13.894Z,58.55
2017-01-01T05:40:13.317Z,58.53
2017-01-01T05:41:12.235Z,58.53
2017-01-01T05:42:12.221Z,58.55
2017-01-01T05:43:12.889Z,58.57
2017-01-01T05:44:13.881Z,58.58
2017-01-01T05:45:13.414Z,58.59
2017-01-01T05:46:12.571Z,58.60
2017-01-01T05:47:14.221Z,58.58
2017-01-01T05:48:12.399Z,58.59
2017-01-01T05:49:12.358Z,58.59
2017-01-01T05:50:12.476Z,58.59
2017-01-01T05:51:12.598Z,58.61
2017-01-01T05:52:14.473Z,58.61
2017-01-01T05:53:12.888Z,58.60
2017-01-01T05:54:13.670Z,58.64
2017-01-01T05:55:12.652Z,58.64
2017-01-01T05:56:12.782Z,58.64
2017-01-01T05:57:13.641Z,58.63
2017-01-01T05:58:13.301Z,58.64
2017-01-01T05:59:13.443Z,58.66
2017-01-01T06:00:13.049Z,58.65
2017-01-01T06:01:11.993Z,58.66
2017-01-01T06:02:12.539Z,58.67
2017-01-01T06:03:14.832Z,58.69
2017-01-01T06:04:13.644Z,58.69
2017-01-01T06:05:13.842Z,58.68
2017-01-01T06:06:12.780Z,58.69
2017-01-01T06:07:15.179Z,58.69
2017-01-01T06:08:14.031Z,58.68
2017-01-01T06:09:11.180Z,58.68
2017-01-01T06:10:14.501Z,58.68
2017-01-01T06:11:12.653Z,58.67
2017-01-01T06:12:12.758Z,58.67
2017-01-01T06:13:13.890Z,58.70
2017-01-01T06:14:12.805Z,58.68
2017-01-01T06:15:13.406Z,58.71
2017-01-01T06:16:12.916Z,58.70
2017-01-01T06:17:13.469Z,58.60
2017-01-01T06:18:13.140Z,57.77
2017-01-01T06:19:12.163Z,57.57
2017-01-01T06:20:12.204Z,57.45
2017-01-01T06:21:13.360Z,57.43
2017-01-01T06:22:12.462Z,57.40
2017-01-01T06:23:13.031Z,57.39
2017-01-01T06:24:13.014Z,57.40
2017-01-01T06:25:12.035Z,57.37
2017-01-01T06:26:12.705Z,57.36
2017-01-01T06:27:12.677Z,57.48
2017-01-01T06:28:13.119Z,57.35
2017-01-01T06:29:12.887Z,57.29
2017-01-01T06:30:12.994Z,57.35
2017-01-01T06:31:12.029Z,57.37
2017-01-01T06:32:12.054Z,57.42
2017-01-01T06:33:12.076Z,57.38
2017-01-01T06:34:12.117Z,57.33
2017-01-01T06:35:12.602Z,57.36
2017-01-01T06:36:13.335Z,57.37
2017-01-01T06:37:12.374Z,57.37
2017-01-01T06:38:14.015Z,58.32
2017-01-01T06:39:13.058Z,58.53
2017-01-01T06:40:12.838Z,58.63
2017-01-01T06:41:13.014Z,58.65
2017-01-01T06:42:12.125Z,58.70
2017-01-01T06:43:14.096Z,58.79
2017-01-01T06:44:12.566Z,58.79
2017-01-01T06:45:12.616Z,58.79
2017-01-01T06:46:13.176Z,58.81
2017-01-01T06:47:12.131Z,58.81
2017-01-01T06:48:13.805Z,58.83
2017-01-01T06:49:13.105Z,58.83
2017-01-01T06:50:12.178Z,58.85
2017-01-01T06:51:12.358Z,58.83
2017-01-01T06:52:12.926Z,58.85
2017-01-01T06:53:12.939Z,58.84
2017-01-01T06:54:12.471Z,58.83
2017-01-01T06:55:12.464Z,58.86
2017-01-01T06:56:11.124Z,58.87
2017-01-01T06:57:14.023Z,57.94
2017-01-01T06:58:11.977Z,57.72
2017-01-01T06:59:13.484Z,57.62
2017-01-01T07:00:12.628Z,58.48
2017-01-01T07:01:13.367Z,58.69
2017-01-01T07:02:11.492Z,58.64
2017-01-01T07:03:13.188Z,57.87
2017-01-01T07:04:12.735Z,57.69
2017-01-01T07:05:13.624Z,57.62
2017-01-01T07:06:14.303Z,58.52
2017-01-01T07:07:13.044Z,58.70
2017-01-01T07:08:12.655Z,58.80
2017-01-01T07:09:13.020Z,58.83
2017-01-01T07:10:12.419Z,58.85
2017-01-01T07:11:13.306Z,58.87
2017-01-01T07:12:13.845Z,58.90
2017-01-01T07:13:12.797Z,58.91
2017-01-01T07:14:14.056Z,58.94
2017-01-01T07:15:12.879Z,58.95
2017-01-01T07:16:15.773Z,58.96
2017-01-01T07:17:13.049Z,58.94
2017-01-01T07:18:11.990Z,58.95
2017-01-01T07:19:12.730Z,58.95
2017-01-01T07:20:13.326Z,58.95
2017-01-01T07:21:14.199Z,58.97
2017-01-01T07:22:12.318Z,58.96
2017-01-01T07:23:12.894Z,58.98
2017-01-01T07:24:12.908Z,58.95
2017-01-01T07:25:13.413Z,58.97
2017-01-01T07:26:16.174Z,58.98
2017-01-01T07:27:14.396Z,58.98
2017-01-01T07:28:12.462Z,58.97
2017-01-01T07:29:13.123Z,58.99
2017-01-01T07:30:12.806Z,58.98
2017-01-01T07:31:12.807Z,58.99
2017-01-01T07:32:13.218Z,58.98
2017-01-01T07:33:13.039Z,58.99
2017-01-01T07:34:12.793Z,59.00
2017-01-01T07:35:13.152Z,58.86
2017-01-01T07:36:12.931Z,58.06
2017-01-01T07:37:13.689Z,57.85
2017-01-01T07:38:14.498Z,58.69
2017-01-01T07:39:14.183Z,58.89
2017-01-01T07:40:12.186Z,58.95
2017-01-01T07:41:11.128Z,58.90
2017-01-01T07:42:12.123Z,58.37
2017-01-01T07:43:12.184Z,58.86
2017-01-01T07:44:12.890Z,58.96
2017-01-01T07:45:12.988Z,58.99
2017-01-01T07:46:12.145Z,59.02
2017-01-01T07:47:12.275Z,59.02
2017-01-01T07:48:12.830Z,59.06
2017-01-01T07:49:12.706Z,59.06
2017-01-01T07:50:12.706Z,59.08
2017-01-01T07:51:15.411Z,59.10
2017-01-01T07:52:14.086Z,59.10
2017-01-01T07:53:12.725Z,59.10
2017-01-01T07:54:14.401Z,59.06
2017-01-01T07:55:12.316Z,59.07
2017-01-01T07:56:13.093Z,59.08
2017-01-01T07:57:12.131Z,59.11
2017-01-01T07:58:12.248Z,59.13
2017-01-01T07:59:12.809Z,59.12
2017-01-01T08:00:13.003Z,59.08
2017-01-01T08:01:12.588Z,59.10
2017-01-01T08:02:13.370Z,59.12
2017-01-01T08:03:14.073Z,59.10
2017-01-01T08:04:12.629Z,59.12
2017-01-01T08:05:13.155Z,59.12
2017-01-01T08:06:12.260Z,59.14
2017-01-01T08:07:12.267Z,59.15
2017-01-01T08:08:12.449Z,59.13
2017-01-01T08:09:14.243Z,59.15
2017-01-01T08:10:11.268Z,59.14
2017-01-01T08:11:12.292Z,59.12
2017-01-01T08:12:12.261Z,59.11
2017-01-01T08:13:11.184Z,59.02
2017-01-01T08:14:12.770Z,58.18
2017-01-01T08:15:12.773Z,58.00
2017-01-01T08:16:12.821Z,57.89
2017-01-01T08:17:13.016Z,57.85
2017-01-01T08:18:12.116Z,57.83
2017-01-01T08:19:12.908Z,57.81
2017-01-01T08:20:13.786Z,57.77
2017-01-01T08:21:13.655Z,57.79
2017-01-01T08:22:13.387Z,57.81
2017-01-01T08:23:13.080Z,58.70
2017-01-01T08:24:12.737Z,58.90
2017-01-01T08:25:12.853Z,59.01
2017-01-01T08:26:12.970Z,59.10
2017-01-01T08:27:11.974Z,59.12
2017-01-01T08:28:12.012Z,59.15
2017-01-01T08:29:12.863Z,59.18
2017-01-01T08:30:13.468Z,59.20
2017-01-01T08:31:12.441Z,59.22
2017-01-01T08:32:12.666Z,59.22
2017-01-01T08:33:12.652Z,59.19
2017-01-01T08:34:12.689Z,59.21
2017-01-01T08:35:13.418Z,59.22
2017-01-01T08:36:13.115Z,59.21
2017-01-01T08:37:12.532Z,59.23
2017-01-01T08:38:13.041Z,59.09
2017-01-01T08:39:14.202Z,58.21
2017-01-01T08:40:12.221Z,58.00
2017-01-01T08:41:13.184Z,57.93
2017-01-01T08:42:13.079Z,57.91
2017-01-01T08:43:11.964Z,58.79
2017-01-01T08:44:11.971Z,58.98
2017-01-01T08:45:11.839Z,59.07
2017-01-01T08:46:12.837Z,59.14
2017-01-01T08:47:13.425Z,59.19
2017-01-01T08:48:13.045Z,59.22
2017-01-01T08:49:12.710Z,59.22
2017-01-01T08:50:13.385Z,59.26
2017-01-01T08:51:12.801Z,59.25
2017-01-01T08:52:14.055Z,59.25
2017-01-01T08:53:13.705Z,59.27
2017-01-01T08:54:13.185Z,59.28
2017-01-01T08:55:13.913Z,59.29
2017-01-01T08:56:12.641Z,59.30
2017-01-01T08:57:12.738Z,59.31
2017-01-01T08:58:13.397Z,59.30
2017-01-01T08:59:13.122Z,59.32
2017-01-01T09:00:12.169Z,59.31
2017-01-01T09:01:12.309Z,59.33
2017-01-01T09:02:12.419Z,59.36
2017-01-01T09:03:14.232Z,59.33
2017-01-01T09:04:12.298Z,59.34
2017-01-01T09:05:14.051Z,59.35
2017-01-01T09:06:13.728Z,59.38
2017-01-01T09:07:15.656Z,59.37
2017-01-01T09:08:12.957Z,59.35
2017-01-01T09:09:12.975Z,59.35
2017-01-01T09:10:12.554Z,59.35
2017-01-01T09:11:13.242Z,59.24
2017-01-01T09:12:12.787Z,58.44
2017-01-01T09:13:12.163Z,58.28
2017-01-01T09:14:13.355Z,58.21
2017-01-01T09:15:12.836Z,59.00
2017-01-01T09:16:14.609Z,59.19
2017-01-01T09:17:14.469Z,59.29
2017-01-01T09:18:13.290Z,59.36
2017-01-01T09:19:12.749Z,59.34
2017-01-01T09:20:11.703Z,59.34
2017-01-01T09:21:12.796Z,59.35
2017-01-01T09:22:12.666Z,59.36
2017-01-01T09:23:13.924Z,59.37
2017-01-01T09:24:12.956Z,59.44
2017-01-01T09:25:11.967Z,59.42
2017-01-01T09:26:11.947Z,59.42
2017-01-01T09:27:12.237Z,59.42
2017-01-01T09:28:12.196Z,59.46
2017-01-01T09:29:12.278Z,59.45
2017-01-01T09:30:12.802Z,59.47
2017-01-01T09:31:12.937Z,59.46
2017-01-01T09:32:11.713Z,59.48
2017-01-01T09:33:13.361Z,59.47
2017-01-01T09:34:12.892Z,59.49
2017-01-01T09:35:12.075Z,59.37
2017-01-01T09:36:13.651Z,58.58
2017-01-01T09:37:12.797Z,59.22
2017-01-01T09:38:13.270Z,59.38
2017-01-01T09:39:13.274Z,59.44
2017-01-01T09:40:12.946Z,59.47
2017-01-01T09:41:12.251Z,59.47
2017-01-01T09:42:12.313Z,59.45
2017-01-01T09:43:12.473Z,59.49
2017-01-01T09:44:14.022Z,59.52
2017-01-01T09:45:12.824Z,59.55
2017-01-01T09:46:14.403Z,59.56
2017-01-01T09:47:12.525Z,59.57
2017-01-01T09:48:14.833Z,59.54
2017-01-01T09:49:12.595Z,59.56
2017-01-01T09:50:13.018Z,59.56
2017-01-01T09:51:12.827Z,59.54
2017-01-01T09:52:10.156Z,59.56
2017-01-01T09:53:12.081Z,59.58
2017-01-01T09:54:13.245Z,59.59
2017-01-01T09:55:13.159Z,59.60
2017-01-01T09:56:13.118Z,59.63
2017-01-01T09:57:12.259Z,59.61
2017-01-01T09:58:12.295Z,59.59
2017-01-01T09:59:13.951Z,59.60
2017-01-01T10:00:12.517Z,59.60
2017-01-01T10:01:12.453Z,59.59
2017-01-01T10:02:12.648Z,59.63
2017-01-01T10:03:12.723Z,59.67
2017-01-01T10:04:12.883Z,59.69
2017-01-01T10:05:13.518Z,59.67
2017-01-01T10:06:12.655Z,59.66
2017-01-01T10:07:13.409Z,59.69
2017-01-01T10:08:12.689Z,59.71
2017-01-01T10:09:13.895Z,59.70
2017-01-01T10:10:14.775Z,59.65
2017-01-01T10:11:13.060Z,59.66
2017-01-01T10:12:13.064Z,59.70
2017-01-01T10:13:12.201Z,59.69
2017-01-01T10:14:12.383Z,59.73
2017-01-01T10:15:12.293Z,59.74
2017-01-01T10:16:14.082Z,59.60
2017-01-01T10:17:13.890Z,58.79
2017-01-01T10:18:11.877Z,58.59
2017-01-01T10:19:11.889Z,58.64
2017-01-01T10:20:13.665Z,59.41
2017-01-01T10:21:13.191Z,59.61
2017-01-01T10:22:12.299Z,59.71
2017-01-01T10:23:13.029Z,59.77
2017-01-01T10:24:13.361Z,59.77
2017-01-01T10:25:12.304Z,59.83
2017-01-01T10:26:14.029Z,59.80
2017-01-01T10:27:12.573Z,59.81
2017-01-01T10:28:13.094Z,59.79
2017-01-01T10:29:11.876Z,59.82
2017-01-01T10:30:11.935Z,59.83
2017-01-01T10:31:12.618Z,59.83
2017-01-01T10:32:13.308Z,59.85
2017-01-01T10:33:12.912Z,59.84
2017-01-01T10:34:13.731Z,59.87
2017-01-01T10:35:13.686Z,59.86
2017-01-01T10:36:13.289Z,59.84
2017-01-01T10:37:15.108Z,59.84
2017-01-01T10:38:12.763Z,59.87
2017-01-01T10:39:15.185Z,59.92
2017-01-01T10:40:12.564Z,59.90
2017-01-01T10:41:12.512Z,59.90
2017-01-01T10:42:12.766Z,59.91
2017-01-01T10:43:13.216Z,59.94
2017-01-01T10:44:13.936Z,59.97
2017-01-01T10:45:13.658Z,59.94
2017-01-01T10:46:13.425Z,59.94
2017-01-01T10:47:12.460Z,59.97
2017-01-01T10:48:14.052Z,59.96
2017-01-01T10:49:12.143Z,59.95
2017-01-01T10:50:12.047Z,59.99
2017-01-01T10:51:12.808Z,59.98
2017-01-01T10:52:12.856Z,60.00
2017-01-01T10:53:13.433Z,60.04
2017-01-01T10:54:13.527Z,60.03
2017-01-01T10:55:13.004Z,60.02
2017-01-01T10:56:12.583Z,60.05
2017-01-01T10:57:15.516Z,60.06
2017-01-01T10:58:12.419Z,59.99
2017-01-01T10:59:14.225Z,59.98
2017-01-01T11:00:13.972Z,59.98
2017-01-01T11:01:11.185Z,59.82
2017-01-01T11:02:12.147Z,59.03
2017-01-01T11:03:12.705Z,58.75
2017-01-01T11:04:12.584Z,58.66
2017-01-01T11:05:13.199Z,58.52
2017-01-01T11:06:12.637Z,58.53
2017-01-01T11:07:13.573Z,59.41
2017-01-01T11:08:12.718Z,59.56
2017-01-01T11:09:14.183Z,59.67
2017-01-01T11:10:12.221Z,59.69
2017-01-01T11:11:13.078Z,59.70
2017-01-01T11:12:12.305Z,59.69
2017-01-01T11:13:13.191Z,59.76
2017-01-01T11:14:12.439Z,59.72
2017-01-01T11:15:14.022Z,59.84
2017-01-01T11:16:12.066Z,59.85
2017-01-01T11:17:12.927Z,59.84
2017-01-01T11:18:12.767Z,59.93
2017-01-01T11:19:12.933Z,60.09
2017-01-01T11:20:12.652Z,60.08
2017-01-01T11:21:12.795Z,60.09
2017-01-01T11:22:16.351Z,60.15
2017-01-01T11:23:12.763Z,60.19
2017-01-01T11:24:16.418Z,60.11
2017-01-01T11:25:12.779Z,60.27
2017-01-01T11:26:10.924Z,60.28
2017-01-01T11:27:11.974Z,60.78
2017-01-01T11:28:11.091Z,61.08
2017-01-01T11:29:11.188Z,61.29
2017-01-01T11:30:12.827Z,59.97
2017-01-01T11:31:13.726Z,60.69
2017-01-01T11:32:12.860Z,60.93
2017-01-01T11:33:12.833Z,60.97
2017-01-01T11:34:13.321Z,60.95
2017-01-01T11:35:12.100Z,60.94
2017-01-01T11:36:12.694Z,60.94
2017-01-01T11:37:13.436Z,60.91
2017-01-01T11:38:10.364Z,60.92
2017-01-01T11:39:13.992Z,60.92
2017-01-01T11:40:12.541Z,60.91
2017-01-01T11:41:12.606Z,60.90
2017-01-01T11:42:12.655Z,60.91
2017-01-01T11:43:13.175Z,60.84
2017-01-01T11:44:12.936Z,60.83
2017-01-01T11:45:10.930Z,60.74
2017-01-01T11:46:12.852Z,60.78
2017-01-01T11:47:13.496Z,60.72
2017-01-01T11:48:12.684Z,60.96
2017-01-01T11:49:13.430Z,44.86
2017-01-01T11:50:12.611Z,39.83
2017-01-01T11:51:14.067Z,38.79
2017-01-01T11:52:13.366Z,39.34
2017-01-01T11:53:13.576Z,39.16
2017-01-01T11:54:14.454Z,39.64
2017-01-01T11:55:13.277Z,40.17
2017-01-01T11:56:13.132Z,40.95
2017-01-01T11:57:14.963Z,43.83
2017-01-01T11:58:12.171Z,45.19
2017-01-01T11:59:12.153Z,47.63
2017-01-01T12:00:12.702Z,49.06
2017-01-01T12:01:12.642Z,49.38
2017-01-01T12:02:13.180Z,50.28
2017-01-01T12:03:12.320Z,50.34
2017-01-01T12:04:14.026Z,50.56
2017-01-01T12:05:11.468Z,50.74
2017-01-01T12:06:12.816Z,50.81
2017-01-01T12:07:15.182Z,50.73
2017-01-01T12:08:12.642Z,50.89
2017-01-01T12:09:15.380Z,51.16
2017-01-01T12:10:12.683Z,51.33
2017-01-01T12:11:13.201Z,51.53
2017-01-01T12:12:12.844Z,51.77
2017-01-01T12:13:13.900Z,51.92
2017-01-01T12:14:13.068Z,51.90
2017-01-01T12:15:12.802Z,52.06
2017-01-01T12:16:13.461Z,52.06
2017-01-01T12:17:13.442Z,52.42
2017-01-01T12:18:12.476Z,52.57
2017-01-01T12:19:12.960Z,52.81
2017-01-01T12:20:12.682Z,52.94
2017-01-01T12:21:14.372Z,52.92
2017-01-01T12:22:12.370Z,53.09
2017-01-01T12:23:13.019Z,53.30
2017-01-01T12:24:13.114Z,53.54
2017-01-01T12:25:13.019Z,53.57
2017-01-01T12:26:20.767Z,53.72
2017-01-01T12:27:12.805Z,53.82
2017-01-01T12:28:13.311Z,54.09
2017-01-01T12:29:12.684Z,54.03
2017-01-01T12:30:14.363Z,54.27
2017-01-01T12:31:12.388Z,54.17
2017-01-01T12:32:15.786Z,54.34
2017-01-01T12:33:13.106Z,54.45
2017-01-01T12:34:13.884Z,54.70
2017-01-01T12:35:13.358Z,54.76
2017-01-01T12:36:12.510Z,54.87
2017-01-01T12:37:15.641Z,54.87
2017-01-01T12:38:16.146Z,54.90
2017-01-01T12:39:13.196Z,55.12
2017-01-01T12:40:14.760Z,55.16
2017-01-01T12:41:16.440Z,55.30
2017-01-01T12:42:13.950Z,55.30
2017-01-01T12:43:16.090Z,55.29
2017-01-01T12:44:14.320Z,55.36
2017-01-01T12:45:14.208Z,55.35
2017-01-01T12:46:14.069Z,55.37
2017-01-01T12:47:15.158Z,55.43
2017-01-01T12:48:15.960Z,55.39
2017-01-01T12:49:14.977Z,55.38
2017-01-01T12:50:13.331Z,55.40
2017-01-01T12:51:15.667Z,55.39
2017-01-01T12:52:15.983Z,55.47